sensor_id;sensor_type;location;lat;lon;timestamp;pressure;altitude;pressure_sealevel;temperature;humidity
38786;BME280;24535;45.508;12.252;2024-02-26T00:01:45;100783.72;;;14.45;56.54
38786;BME280;24535;45.508;12.252;2024-02-26T00:07:47;100783.13;;;14.42;56.89
38786;BME280;24535;45.508;12.252;2024-02-26T00:16:10;100778.94;;;14.39;56.57
38786;BME280;24535;45.508;12.252;2024-02-26T00:18:42;100771.94;;;14.38;56.37
38786;BME280;24535;45.508;12.252;2024-02-26T00:21:27;100776.13;;;14.41;56.56
38786;BME280;24535;45.508;12.252;2024-02-26T00:23:56;100776.97;;;14.41;56.62
38786;BME280;24535;45.508;12.252;2024-02-26T00:26:27;100770.84;;;14.41;56.64
38786;BME280;24535;45.508;12.252;2024-02-26T00:28:53;100777.69;;;14.43;56.90
38786;BME280;24535;45.508;12.252;2024-02-26T00:31:18;100775.31;;;14.40;57.15
38786;BME280;24535;45.508;12.252;2024-02-26T00:33:50;100770.13;;;14.39;56.42
38786;BME280;24535;45.508;12.252;2024-02-26T00:36:15;100769.16;;;14.40;56.38
38786;BME280;24535;45.508;12.252;2024-02-26T00:38:44;100775.31;;;14.40;56.85
38786;BME280;24535;45.508;12.252;2024-02-26T00:41:21;100775.31;;;14.40;56.59
38786;BME280;24535;45.508;12.252;2024-02-26T00:43:50;100769.31;;;14.38;56.67
38786;BME280;24535;45.508;12.252;2024-02-26T00:46:15;100773.72;;;14.38;56.86
38786;BME280;24535;45.508;12.252;2024-02-26T00:49:09;100772.78;;;14.39;56.13
38786;BME280;24535;45.508;12.252;2024-02-26T01:06:35;100744.84;;;14.34;56.19
38786;BME280;24535;45.508;12.252;2024-02-26T01:15:06;100745.47;;;14.27;56.40
38786;BME280;24535;45.508;12.252;2024-02-26T01:17:31;100729.81;;;14.24;56.43
38786;BME280;24535;45.508;12.252;2024-02-26T01:28:12;100711.53;;;14.21;55.98
38786;BME280;24535;45.508;12.252;2024-02-26T01:30:38;100711.28;;;14.24;56.09
38786;BME280;24535;45.508;12.252;2024-02-26T01:33:15;100705.41;;;14.20;56.60
38786;BME280;24535;45.508;12.252;2024-02-26T01:35:40;100712.25;;;14.23;56.04
38786;BME280;24535;45.508;12.252;2024-02-26T01:38:06;100699.25;;;14.20;57.06
38786;BME280;24535;45.508;12.252;2024-02-26T01:40:40;100705.41;;;14.20;56.63
38786;BME280;24535;45.508;12.252;2024-02-26T01:43:09;100713.09;;;14.23;56.34
38786;BME280;24535;45.508;12.252;2024-02-26T01:45:34;100694.78;;;14.20;56.21
38786;BME280;24535;45.508;12.252;2024-02-26T01:48:03;100699.97;;;14.22;56.03
38786;BME280;24535;45.508;12.252;2024-02-26T01:50:42;100697.31;;;14.22;56.15
38786;BME280;24535;45.508;12.252;2024-02-26T01:53:08;100700.09;;;14.20;56.25
38786;BME280;24535;45.508;12.252;2024-02-26T01:55:53;100700.94;;;14.21;55.93
38786;BME280;24535;45.508;12.252;2024-02-26T01:58:18;100707.66;;;14.25;56.11
38786;BME280;24535;45.508;12.252;2024-02-26T02:00:55;100699.25;;;14.20;56.61
38786;BME280;24535;45.508;12.252;2024-02-26T02:03:24;100699.97;;;14.22;55.87
38786;BME280;24535;45.508;12.252;2024-02-26T02:06:00;100691.44;;;14.18;56.18
38786;BME280;24535;45.508;12.252;2024-02-26T02:16:58;100688.91;;;14.17;55.93
38786;BME280;24535;45.508;12.252;2024-02-26T02:19:24;100681.94;;;14.16;56.04
38786;BME280;24535;45.508;12.252;2024-02-26T02:21:50;100678.56;;;14.14;56.12
38786;BME280;24535;45.508;12.252;2024-02-26T02:24:15;100671.19;;;14.17;56.27
38786;BME280;24535;45.508;12.252;2024-02-26T02:26:41;100668.69;;;14.16;55.82
38786;BME280;24535;45.508;12.252;2024-02-26T02:29:07;100668.69;;;14.16;56.00
38786;BME280;24535;45.508;12.252;2024-02-26T02:31:33;100661.00;;;14.13;55.79
38786;BME280;24535;45.508;12.252;2024-02-26T02:34:02;100665.19;;;14.15;55.71
38786;BME280;24535;45.508;12.252;2024-02-26T02:36:34;100670.25;;;14.18;55.70
38786;BME280;24535;45.508;12.252;2024-02-26T02:39:04;100660.75;;;14.16;56.36
38786;BME280;24535;45.508;12.252;2024-02-26T02:41:29;100657.34;;;14.14;56.00
38786;BME280;24535;45.508;12.252;2024-02-26T02:43:57;100661.56;;;14.16;55.95
38786;BME280;24535;45.508;12.252;2024-02-26T02:46:23;100652.06;;;14.14;56.11
38786;BME280;24535;45.508;12.252;2024-02-26T02:48:54;100656.13;;;14.18;55.70
38786;BME280;24535;45.508;12.252;2024-02-26T02:51:20;100655.69;;;14.13;55.77
38786;BME280;24535;45.508;12.252;2024-02-26T03:00:01;100649.31;;;14.15;56.10
38786;BME280;24535;45.508;12.252;2024-02-26T03:02:32;100645.69;;;14.16;56.34
38786;BME280;24535;45.508;12.252;2024-02-26T03:04:57;100637.03;;;14.14;55.79
38786;BME280;24535;45.508;12.252;2024-02-26T03:07:26;100636.16;;;14.14;56.08
38786;BME280;24535;45.508;12.252;2024-02-26T03:13:16;100619.72;;;14.10;55.36
38786;BME280;24535;45.508;12.252;2024-02-26T03:20:52;100623.19;;;14.10;55.79
38786;BME280;24535;45.508;12.252;2024-02-26T03:23:24;100616.34;;;14.08;55.81
38786;BME280;24535;45.508;12.252;2024-02-26T03:25:49;100603.94;;;14.08;55.62
38786;BME280;24535;45.508;12.252;2024-02-26T03:28:21;100608.25;;;14.09;56.46
38786;BME280;24535;45.508;12.252;2024-02-26T03:30:52;100608.38;;;14.08;56.08
38786;BME280;24535;45.508;12.252;2024-02-26T03:33:17;100607.81;;;14.04;55.61
38786;BME280;24535;45.508;12.252;2024-02-26T03:35:42;100609.47;;;14.05;56.13
38786;BME280;24535;45.508;12.252;2024-02-26T03:38:09;100606.00;;;14.05;55.83
38786;BME280;24535;45.508;12.252;2024-02-26T03:40:34;100606.81;;;14.05;56.13
38786;BME280;24535;45.508;12.252;2024-02-26T03:43:00;100601.53;;;14.05;56.28
38786;BME280;24535;45.508;12.252;2024-02-26T03:45:25;100601.28;;;14.08;55.47
38786;BME280;24535;45.508;12.252;2024-02-26T03:47:51;100595.28;;;14.06;55.74
38786;BME280;24535;45.508;12.252;2024-02-26T03:58:21;100606.59;;;14.08;56.25
38786;BME280;24535;45.508;12.252;2024-02-26T04:00:47;100602.41;;;14.06;55.76
38786;BME280;24535;45.508;12.252;2024-02-26T04:03:21;100603.47;;;14.03;55.50
38786;BME280;24535;45.508;12.252;2024-02-26T04:05:46;100607.56;;;14.07;56.09
38786;BME280;24535;45.508;12.252;2024-02-26T04:08:27;100607.69;;;14.06;55.27
38786;BME280;24535;45.508;12.252;2024-02-26T04:10:54;100608.53;;;14.06;55.82
38786;BME280;24535;45.508;12.252;2024-02-26T04:13:19;100607.81;;;14.04;55.88
38786;BME280;24535;45.508;12.252;2024-02-26T04:15:45;100608.53;;;14.06;56.11
38786;BME280;24535;45.508;12.252;2024-02-26T04:18:18;100605.28;;;14.03;55.85
38786;BME280;24535;45.508;12.252;2024-02-26T04:20:43;100605.41;;;14.01;55.85
38786;BME280;24535;45.508;12.252;2024-02-26T04:23:09;100604.31;;;14.04;55.36
38786;BME280;24535;45.508;12.252;2024-02-26T04:25:40;100606.38;;;14.00;55.56
38786;BME280;24535;45.508;12.252;2024-02-26T04:30:49;100607.09;;;14.02;55.94
38786;BME280;24535;45.508;12.252;2024-02-26T04:33:45;100604.31;;;14.04;55.79
38786;BME280;24535;45.508;12.252;2024-02-26T04:36:36;100600.09;;;14.01;56.05
38786;BME280;24535;45.508;12.252;2024-02-26T04:39:11;100596.75;;;13.99;55.77
38786;BME280;24535;45.508;12.252;2024-02-26T04:41:43;100603.16;;;13.97;56.05
38786;BME280;24535;45.508;12.252;2024-02-26T04:44:26;100609.03;;;14.00;55.64
38786;BME280;24535;45.508;12.252;2024-02-26T04:49:25;100609.28;;;13.97;55.61
38786;BME280;24535;45.508;12.252;2024-02-26T04:51:57;100613.88;;;13.95;55.82
38786;BME280;24535;45.508;12.252;2024-02-26T04:54:24;100623.25;;;13.99;55.91
38786;BME280;24535;45.508;12.252;2024-02-26T04:56:49;100620.97;;;13.95;56.10
38786;BME280;24535;45.508;12.252;2024-02-26T04:59:18;100618.19;;;13.96;56.02
38786;BME280;24535;45.508;12.252;2024-02-26T05:01:47;100620.75;;;13.98;55.59
38786;BME280;24535;45.508;12.252;2024-02-26T05:04:13;100618.09;;;13.98;55.43
38786;BME280;24535;45.508;12.252;2024-02-26T05:06:48;100614.72;;;13.96;56.01
38786;BME280;24535;45.508;12.252;2024-02-26T05:09:20;100618.19;;;13.96;55.59
38786;BME280;24535;45.508;12.252;2024-02-26T05:11:45;100617.94;;;13.99;56.09
38786;BME280;24535;45.508;12.252;2024-02-26T05:22:05;100603.97;;;13.97;55.51
38786;BME280;24535;45.508;12.252;2024-02-26T05:24:39;100607.59;;;13.96;55.14
38786;BME280;24535;45.508;12.252;2024-02-26T05:27:17;100614.13;;;13.92;55.48
38786;BME280;24535;45.508;12.252;2024-02-26T05:29:42;100614.72;;;13.96;56.04
38786;BME280;24535;45.508;12.252;2024-02-26T05:32:11;100606.91;;;13.94;55.85
38786;BME280;24535;45.508;12.252;2024-02-26T05:35:07;100601.59;;;13.94;55.80
38786;BME280;24535;45.508;12.252;2024-02-26T05:37:39;100600.63;;;13.95;55.95
38786;BME280;24535;45.508;12.252;2024-02-26T05:40:15;100614.00;;;13.94;55.47
38786;BME280;24535;45.508;12.252;2024-02-26T05:42:41;100625.69;;;13.91;56.00
38786;BME280;24535;45.508;12.252;2024-02-26T05:45:12;100637.13;;;13.92;55.64
38786;BME280;24535;45.508;12.252;2024-02-26T05:47:41;100635.31;;;13.92;55.39
38786;BME280;24535;45.508;12.252;2024-02-26T05:50:15;100631.69;;;13.93;55.36
38786;BME280;24535;45.508;12.252;2024-02-26T05:55:24;100625.69;;;13.91;55.51
38786;BME280;24535;45.508;12.252;2024-02-26T05:57:53;100631.00;;;13.91;55.41
38786;BME280;24535;45.508;12.252;2024-02-26T06:00:19;100636.28;;;13.91;55.21
38786;BME280;24535;45.508;12.252;2024-02-26T06:02:44;100642.28;;;13.93;55.58
38786;BME280;24535;45.508;12.252;2024-02-26T06:05:10;100643.41;;;13.91;55.31
38786;BME280;24535;45.508;12.252;2024-02-26T06:07:35;100640.75;;;13.91;55.25
38786;BME280;24535;45.508;12.252;2024-02-26T06:10:32;100634.63;;;13.90;55.01
38786;BME280;24535;45.508;12.252;2024-02-26T06:12:58;100639.31;;;13.87;55.79
38786;BME280;24535;45.508;12.252;2024-02-26T06:15:26;100626.19;;;13.85;55.01
38786;BME280;24535;45.508;12.252;2024-02-26T06:17:55;100645.31;;;13.89;55.67
38786;BME280;24535;45.508;12.252;2024-02-26T06:20:28;100653.25;;;13.89;55.10
38786;BME280;24535;45.508;12.252;2024-02-26T06:22:54;100657.13;;;13.84;55.45
38786;BME280;24535;45.508;12.252;2024-02-26T06:25:19;100652.94;;;13.82;55.98
38786;BME280;24535;45.508;12.252;2024-02-26T06:27:49;100665.78;;;13.87;55.64
38786;BME280;24535;45.508;12.252;2024-02-26T06:33:46;100675.78;;;13.83;55.76
38786;BME280;24535;45.508;12.252;2024-02-26T06:36:12;100683.50;;;13.86;55.40
38786;BME280;24535;45.508;12.252;2024-02-26T06:38:37;100678.59;;;13.81;55.70
38786;BME280;24535;45.508;12.252;2024-02-26T06:41:12;100669.91;;;13.79;55.44
38786;BME280;24535;45.508;12.252;2024-02-26T06:43:43;100682.91;;;13.82;55.68
38786;BME280;24535;45.508;12.252;2024-02-26T06:46:09;100690.09;;;13.80;56.07
38786;BME280;24535;45.508;12.252;2024-02-26T06:49:19;100697.13;;;13.81;55.76
38786;BME280;24535;45.508;12.252;2024-02-26T06:51:45;100697.13;;;13.81;55.77
38786;BME280;24535;45.508;12.252;2024-02-26T06:54:13;100698.88;;;13.81;55.49
38786;BME280;24535;45.508;12.252;2024-02-26T06:59:56;100720.56;;;13.86;56.14
38786;BME280;24535;45.508;12.252;2024-02-26T07:02:27;100712.03;;;13.82;55.97
38786;BME280;24535;45.508;12.252;2024-02-26T07:05:18;100714.53;;;13.84;55.68
38786;BME280;24535;45.508;12.252;2024-02-26T07:07:49;100713.69;;;13.83;55.81
38786;BME280;24535;45.508;12.252;2024-02-26T07:10:21;100720.66;;;13.84;55.59
38786;BME280;24535;45.508;12.252;2024-02-26T07:12:46;100718.88;;;13.85;56.23
38786;BME280;24535;45.508;12.252;2024-02-26T07:15:12;100712.03;;;13.82;55.81
38786;BME280;24535;45.508;12.252;2024-02-26T07:17:37;100723.31;;;13.84;55.45
38786;BME280;24535;45.508;12.252;2024-02-26T07:20:25;100712.03;;;13.82;55.94
38786;BME280;24535;45.508;12.252;2024-02-26T07:22:50;100720.56;;;13.86;55.71
38786;BME280;24535;45.508;12.252;2024-02-26T07:25:25;100719.84;;;13.84;55.66
38786;BME280;24535;45.508;12.252;2024-02-26T07:27:53;100724.16;;;13.85;55.93
38786;BME280;24535;45.508;12.252;2024-02-26T07:30:28;100722.38;;;13.85;56.07
38786;BME280;24535;45.508;12.252;2024-02-26T07:32:53;100722.47;;;13.84;56.17
38786;BME280;24535;45.508;12.252;2024-02-26T07:35:27;100716.09;;;13.87;55.57
38786;BME280;24535;45.508;12.252;2024-02-26T07:37:56;100720.66;;;13.84;56.40
38786;BME280;24535;45.508;12.252;2024-02-26T07:40:22;100713.94;;;13.80;56.00
38786;BME280;24535;45.508;12.252;2024-02-26T07:42:47;100706.13;;;13.79;56.56
38786;BME280;24535;45.508;12.252;2024-02-26T07:45:13;100709.75;;;13.78;56.16
38786;BME280;24535;45.508;12.252;2024-02-26T07:47:40;100713.94;;;13.80;56.50
38786;BME280;24535;45.508;12.252;2024-02-26T07:50:08;100711.06;;;13.83;56.58
38786;BME280;24535;45.508;12.252;2024-02-26T07:52:37;100715.50;;;13.83;56.49
38786;BME280;24535;45.508;12.252;2024-02-26T07:55:02;100717.19;;;13.84;56.91
38786;BME280;24535;45.508;12.252;2024-02-26T07:57:28;100717.19;;;13.84;56.58
38786;BME280;24535;45.508;12.252;2024-02-26T07:59:58;100709.63;;;13.79;57.12
38786;BME280;24535;45.508;12.252;2024-02-26T08:02:24;100717.56;;;13.79;57.33
38786;BME280;24535;45.508;12.252;2024-02-26T08:04:50;100717.69;;;13.78;57.48
38786;BME280;24535;45.508;12.252;2024-02-26T08:07:15;100725.75;;;13.76;57.23
38786;BME280;24535;45.508;12.252;2024-02-26T08:09:44;100716.13;;;13.75;57.18
38786;BME280;24535;45.508;12.252;2024-02-26T08:12:11;100727.44;;;13.77;57.52
38786;BME280;24535;45.508;12.252;2024-02-26T08:14:36;100729.22;;;13.77;57.37
38786;BME280;24535;45.508;12.252;2024-02-26T08:17:05;100734.28;;;13.80;57.57
38786;BME280;24535;45.508;12.252;2024-02-26T08:19:37;100734.28;;;13.80;57.39
38786;BME280;24535;45.508;12.252;2024-02-26T08:22:02;100735.25;;;13.79;57.75
38786;BME280;24535;45.508;12.252;2024-02-26T08:24:31;100730.81;;;13.79;57.61
38786;BME280;24535;45.508;12.252;2024-02-26T08:27:02;100747.28;;;13.83;57.56
38786;BME280;24535;45.508;12.252;2024-02-26T08:29:27;100735.25;;;13.79;58.11
38786;BME280;24535;45.508;12.252;2024-02-26T08:31:53;100735.72;;;13.84;57.92
38786;BME280;24535;45.508;12.252;2024-02-26T08:34:29;100736.56;;;13.84;57.24
38786;BME280;24535;45.508;12.252;2024-02-26T08:37:07;100744.25;;;13.88;57.76
38786;BME280;24535;45.508;12.252;2024-02-26T08:39:55;100744.13;;;13.89;58.31
38786;BME280;24535;45.508;12.252;2024-02-26T08:42:43;100737.28;;;13.87;58.49
38786;BME280;24535;45.508;12.252;2024-02-26T08:45:20;100738.97;;;13.88;57.70
38786;BME280;24535;45.508;12.252;2024-02-26T08:47:46;100731.63;;;13.91;57.79
38786;BME280;24535;45.508;12.252;2024-02-26T08:50:11;100725.59;;;13.89;58.14
38786;BME280;24535;45.508;12.252;2024-02-26T08:52:40;100721.50;;;13.85;58.18
38786;BME280;24535;45.508;12.252;2024-02-26T08:55:24;100722.38;;;13.85;58.09
38786;BME280;24535;45.508;12.252;2024-02-26T08:57:55;100718.88;;;13.85;58.10
38786;BME280;24535;45.508;12.252;2024-02-26T09:00:24;100726.47;;;13.90;58.46
38786;BME280;24535;45.508;12.252;2024-02-26T09:02:49;100723.91;;;13.88;58.26
38786;BME280;24535;45.508;12.252;2024-02-26T09:05:21;100722.94;;;13.89;58.90
38786;BME280;24535;45.508;12.252;2024-02-26T09:07:47;100720.19;;;13.91;58.38
38786;BME280;24535;45.508;12.252;2024-02-26T09:10:15;100721.88;;;13.92;58.49
38786;BME280;24535;45.508;12.252;2024-02-26T09:12:41;100725.50;;;13.91;58.68
38786;BME280;24535;45.508;12.252;2024-02-26T09:15:07;100724.38;;;13.93;58.85
38786;BME280;24535;45.508;12.252;2024-02-26T09:17:33;100727.16;;;13.92;59.09
38786;BME280;24535;45.508;12.252;2024-02-26T09:20:05;100722.59;;;13.94;58.62
38786;BME280;24535;45.508;12.252;2024-02-26T09:22:34;100731.97;;;13.98;58.58
38786;BME280;24535;45.508;12.252;2024-02-26T09:25:00;100725.25;;;13.94;58.27
38786;BME280;24535;45.508;12.252;2024-02-26T09:27:25;100734.72;;;13.96;58.45
38786;BME280;24535;45.508;12.252;2024-02-26T09:29:53;100725.94;;;13.96;58.33
38786;BME280;24535;45.508;12.252;2024-02-26T09:32:22;100738.81;;;14.00;58.91
38786;BME280;24535;45.508;12.252;2024-02-26T09:34:50;100742.31;;;14.01;59.11
38786;BME280;24535;45.508;12.252;2024-02-26T09:37:15;100743.41;;;13.98;59.01
38786;BME280;24535;45.508;12.252;2024-02-26T09:39:41;100738.09;;;13.98;58.73
38786;BME280;24535;45.508;12.252;2024-02-26T09:42:11;100728.59;;;13.96;59.60
38786;BME280;24535;45.508;12.252;2024-02-26T09:44:55;100723.28;;;13.96;60.03
38786;BME280;24535;45.508;12.252;2024-02-26T09:47:25;100721.50;;;13.96;59.66
38786;BME280;24535;45.508;12.252;2024-02-26T09:49:56;100723.06;;;13.99;59.51
38786;BME280;24535;45.508;12.252;2024-02-26T09:52:23;100709.91;;;13.97;59.18
38786;BME280;24535;45.508;12.252;2024-02-26T09:54:49;100716.94;;;13.98;59.21
38786;BME280;24535;45.508;12.252;2024-02-26T09:57:36;100719.56;;;13.98;59.71
38786;BME280;24535;45.508;12.252;2024-02-26T10:02:40;100721.88;;;13.92;60.32
38786;BME280;24535;45.508;12.252;2024-02-26T10:05:18;100723.53;;;13.93;60.42
38786;BME280;24535;45.508;12.252;2024-02-26T10:07:45;100723.44;;;13.94;60.19
38786;BME280;24535;45.508;12.252;2024-02-26T10:10:14;100727.53;;;13.98;60.16
38786;BME280;24535;45.508;12.252;2024-02-26T10:12:40;100722.09;;;13.89;60.71
38786;BME280;24535;45.508;12.252;2024-02-26T10:15:06;100721.03;;;13.91;60.71
38786;BME280;24535;45.508;12.252;2024-02-26T10:17:38;100719.22;;;13.92;61.13
38786;BME280;24535;45.508;12.252;2024-02-26T10:20:15;100713.78;;;13.93;61.13
38786;BME280;24535;45.508;12.252;2024-02-26T10:22:41;100717.41;;;13.92;60.64
38786;BME280;24535;45.508;12.252;2024-02-26T10:25:55;100718.00;;;13.96;61.22
38786;BME280;24535;45.508;12.252;2024-02-26T10:29:25;100714.28;;;13.98;61.80
38786;BME280;24535;45.508;12.252;2024-02-26T10:31:54;100717.63;;;14.00;61.00
38786;BME280;24535;45.508;12.252;2024-02-26T10:35:05;100716.66;;;14.01;61.61
38786;BME280;24535;45.508;12.252;2024-02-26T10:38:03;100713.75;;;14.04;61.33
38786;BME280;24535;45.508;12.252;2024-02-26T10:40:29;100714.50;;;14.06;60.90
38786;BME280;24535;45.508;12.252;2024-02-26T10:42:58;100716.03;;;14.09;61.08
38786;BME280;24535;45.508;12.252;2024-02-26T10:45:23;100717.25;;;14.05;61.18
38786;BME280;24535;45.508;12.252;2024-02-26T10:47:49;100717.00;;;14.08;61.58
38786;BME280;24535;45.508;12.252;2024-02-26T10:50:14;100715.91;;;14.10;61.52
38786;BME280;24535;45.508;12.252;2024-02-26T10:52:55;100701.69;;;14.12;61.75
38786;BME280;24535;45.508;12.252;2024-02-26T10:56:09;100702.88;;;14.19;61.76
38786;BME280;24535;45.508;12.252;2024-02-26T10:58:38;100700.09;;;14.20;61.45
38786;BME280;24535;45.508;12.252;2024-02-26T11:01:11;100709.72;;;14.21;62.18
38786;BME280;24535;45.508;12.252;2024-02-26T11:03:38;100702.88;;;14.19;62.22
38786;BME280;24535;45.508;12.252;2024-02-26T11:06:13;100702.50;;;14.23;62.23
38786;BME280;24535;45.508;12.252;2024-02-26T11:08:39;100707.91;;;14.22;63.29
38786;BME280;24535;45.508;12.252;2024-02-26T11:11:05;100697.44;;;14.20;62.33
38786;BME280;24535;45.508;12.252;2024-02-26T11:13:35;100695.63;;;14.21;62.52
38786;BME280;24535;45.508;12.252;2024-02-26T11:16:04;100695.03;;;14.17;62.62
38786;BME280;24535;45.508;12.252;2024-02-26T11:18:41;100694.09;;;14.18;63.16
38786;BME280;24535;45.508;12.252;2024-02-26T11:21:07;100688.91;;;14.17;62.98
38786;BME280;24535;45.508;12.252;2024-02-26T11:23:34;100701.91;;;14.20;63.25
38786;BME280;24535;45.508;12.252;2024-02-26T11:26:08;100692.28;;;14.19;62.91
38786;BME280;24535;45.508;12.252;2024-02-26T11:28:42;100694.09;;;14.18;62.70
38786;BME280;24535;45.508;12.252;2024-02-26T11:31:09;100690.84;;;14.15;62.89
38786;BME280;24535;45.508;12.252;2024-02-26T11:33:35;100683.59;;;14.17;63.26
38786;BME280;24535;45.508;12.252;2024-02-26T11:36:13;100686.72;;;14.22;63.54
38786;BME280;24535;45.508;12.252;2024-02-26T11:38:51;100676.00;;;14.23;62.92
38786;BME280;24535;45.508;12.252;2024-02-26T11:44:45;100678.41;;;14.26;62.87
38786;BME280;24535;45.508;12.252;2024-02-26T11:47:27;100671.97;;;14.29;63.27
38786;BME280;24535;45.508;12.252;2024-02-26T11:49:52;100660.81;;;14.25;63.28
38786;BME280;24535;45.508;12.252;2024-02-26T11:52:18;100667.53;;;14.29;63.30
38786;BME280;24535;45.508;12.252;2024-02-26T11:57:57;100670.50;;;14.36;63.14
38786;BME280;24535;45.508;12.252;2024-02-26T12:00:31;100669.53;;;14.37;63.30
38786;BME280;24535;45.508;12.252;2024-02-26T12:03:13;100672.06;;;14.39;63.37
38786;BME280;24535;45.508;12.252;2024-02-26T12:05:49;100666.63;;;14.40;63.00
38786;BME280;24535;45.508;12.252;2024-02-26T12:08:21;100667.34;;;14.42;63.28
38786;BME280;24535;45.508;12.252;2024-02-26T12:10:59;100653.53;;;14.39;63.18
38786;BME280;24535;45.508;12.252;2024-02-26T12:13:35;100657.59;;;14.43;63.12
38786;BME280;24535;45.508;12.252;2024-02-26T12:16:12;100651.47;;;14.42;62.65
38786;BME280;24535;45.508;12.252;2024-02-26T12:19:09;100650.34;;;14.45;63.28
38786;BME280;24535;45.508;12.252;2024-02-26T12:21:40;100658.44;;;14.43;62.84
38786;BME280;24535;45.508;12.252;2024-02-26T12:24:15;100649.75;;;14.41;62.78
38786;BME280;24535;45.508;12.252;2024-02-26T12:26:43;100653.97;;;14.44;63.04
38786;BME280;24535;45.508;12.252;2024-02-26T12:29:09;100649.16;;;14.38;62.81
38786;BME280;24535;45.508;12.252;2024-02-26T12:31:42;100643.75;;;14.39;62.55
38786;BME280;24535;45.508;12.252;2024-02-26T12:34:09;100651.72;;;14.39;63.37
38786;BME280;24535;45.508;12.252;2024-02-26T12:36:35;100658.53;;;14.42;62.81
38786;BME280;24535;45.508;12.252;2024-02-26T12:39:04;100654.94;;;14.43;63.24
38786;BME280;24535;45.508;12.252;2024-02-26T12:41:39;100649.50;;;14.44;62.68
38786;BME280;24535;45.508;12.252;2024-02-26T12:44:17;100641.56;;;14.44;63.33
38786;BME280;24535;45.508;12.252;2024-02-26T12:47:14;100658.75;;;14.50;62.53
38786;BME280;24535;45.508;12.252;2024-02-26T12:49:42;100664.31;;;14.47;62.67
38786;BME280;24535;45.508;12.252;2024-02-26T12:52:16;100662.28;;;14.50;62.95
38786;BME280;24535;45.508;12.252;2024-02-26T12:54:42;100675.53;;;14.50;62.85
38786;BME280;24535;45.508;12.252;2024-02-26T12:57:09;100673.72;;;14.51;63.02
38786;BME280;24535;45.508;12.252;2024-02-26T12:59:35;100664.94;;;14.50;62.36
38786;BME280;24535;45.508;12.252;2024-02-26T13:02:02;100682.25;;;14.54;62.70
38786;BME280;24535;45.508;12.252;2024-02-26T13:04:29;100668.13;;;14.54;62.50
38786;BME280;24535;45.508;12.252;2024-02-26T13:06:55;100667.44;;;14.52;62.72
38786;BME280;24535;45.508;12.252;2024-02-26T13:09:26;100672.59;;;14.53;63.13
38786;BME280;24535;45.508;12.252;2024-02-26T13:11:55;100668.28;;;14.52;62.64
38786;BME280;24535;45.508;12.252;2024-02-26T13:14:20;100672.59;;;14.53;62.92
38786;BME280;24535;45.508;12.252;2024-02-26T13:16:55;100664.66;;;14.53;63.22
38786;BME280;24535;45.508;12.252;2024-02-26T13:19:21;100668.53;;;14.49;62.59
38786;BME280;24535;45.508;12.252;2024-02-26T13:21:46;100670.69;;;14.55;62.79
38786;BME280;24535;45.508;12.252;2024-02-26T13:24:15;100663.72;;;14.54;63.09
38786;BME280;24535;45.508;12.252;2024-02-26T13:26:41;100656.69;;;14.53;63.21
38786;BME280;24535;45.508;12.252;2024-02-26T13:29:07;100669.69;;;14.56;62.43
38786;BME280;24535;45.508;12.252;2024-02-26T13:31:39;100671.78;;;14.53;62.40
38786;BME280;24535;45.508;12.252;2024-02-26T13:34:05;100680.31;;;14.56;62.13
38786;BME280;24535;45.508;12.252;2024-02-26T13:36:31;100681.41;;;14.54;62.43
38786;BME280;24535;45.508;12.252;2024-02-26T13:38:56;100678.19;;;14.50;62.90
38786;BME280;24535;45.508;12.252;2024-02-26T13:41:22;100676.59;;;14.48;62.75
38786;BME280;24535;45.508;12.252;2024-02-26T13:43:48;100683.34;;;14.52;62.84
38786;BME280;24535;45.508;12.252;2024-02-26T13:46:14;100677.44;;;14.48;62.49
38786;BME280;24535;45.508;12.252;2024-02-26T13:48:41;100678.41;;;14.47;62.43
38786;BME280;24535;45.508;12.252;2024-02-26T13:51:07;100676.47;;;14.49;62.74
38786;BME280;24535;45.508;12.252;2024-02-26T13:53:32;100693.13;;;14.51;62.41
38786;BME280;24535;45.508;12.252;2024-02-26T13:55:58;100685.38;;;14.48;62.30
38786;BME280;24535;45.508;12.252;2024-02-26T13:58:26;100687.94;;;14.50;62.17
38786;BME280;24535;45.508;12.252;2024-02-26T14:00:53;100685.88;;;14.53;62.50
38786;BME280;24535;45.508;12.252;2024-02-26T14:03:19;100680.84;;;14.50;62.09
38786;BME280;24535;45.508;12.252;2024-02-26T14:05:45;100682.25;;;14.54;62.92
38786;BME280;24535;45.508;12.252;2024-02-26T14:08:11;100679.72;;;14.53;62.47
38786;BME280;24535;45.508;12.252;2024-02-26T14:10:36;100674.16;;;14.56;62.73
38786;BME280;24535;45.508;12.252;2024-02-26T14:13:03;100672.09;;;14.59;62.49
38786;BME280;24535;45.508;12.252;2024-02-26T14:15:28;100667.78;;;14.58;62.22
38786;BME280;24535;45.508;12.252;2024-02-26T14:17:54;100677.16;;;14.63;62.35
38786;BME280;24535;45.508;12.252;2024-02-26T14:20:25;100670.97;;;14.62;62.47
38786;BME280;24535;45.508;12.252;2024-02-26T14:22:50;100671.97;;;14.61;62.72
38786;BME280;24535;45.508;12.252;2024-02-26T14:25:22;100668.47;;;14.61;62.12
38786;BME280;24535;45.508;12.252;2024-02-26T14:27:48;100665.22;;;14.57;62.57
38786;BME280;24535;45.508;12.252;2024-02-26T14:30:16;100670.53;;;14.57;62.58
38786;BME280;24535;45.508;12.252;2024-02-26T14:32:42;100663.41;;;14.57;62.64
38786;BME280;24535;45.508;12.252;2024-02-26T14:35:09;100661.59;;;14.58;62.22
38786;BME280;24535;45.508;12.252;2024-02-26T14:37:35;100654.63;;;14.57;62.70
38786;BME280;24535;45.508;12.252;2024-02-26T14:40:01;100660.06;;;14.55;62.48